Wildwood, NJ

3:30 AM EDT on October 24, 2014 (GMT -0400)
Middle Thorofare / Two Mile Bridge, Lower Twp | Change Station
CLOSE
Current Station
Personal Weather Station
Location: Cape May, NJ
Elevation: 5 ft
Nearby Weather Stations

Elev 5 ft 38.96 °N, 74.88 °W | Updated 2 seconds ago

Overcast
Overcast
55.5 °F
Feels Like 55.5 °F
N
21.0
Wind Variable Wind from North
Gusts 21.0 mph

Today
High -- | Low -- °F
--% Chance of Precip.
Yesterday
High -- | Low -- °F
Precip. -- in
7:18 AM 6:08 PM
New Moon, 0% visible
Pressure 29.83 in
Visibility 10.0 miles
Clouds Overcast 3800 ft
Dew Point 49 °F
Humidity 78%
Rainfall 0.00 in
Snow Depth Not available.
UV 0 out of 12
Pollen .60 out of 12
Air Quality Not available.
Flu Activity Sporadic
METAR KWWD 240715Z AUTO 32007KT 290V350 10SM OVC038 13/06 A2983 RMK AO1

More Conditions Fewer Conditions

Pressure 29.83 in
Visibility 10.0 miles
Clouds Overcast 3800 ft
Dew Point 49 °F
Humidity 78%
Rainfall 0.00 in
Snow Depth Not available.
UV 0 out of 12
Pollen .60 out of 12
Air Quality Not available.
Flu Activity Sporadic
METAR KWWD 240715Z AUTO 32007KT 290V350 10SM OVC038 13/06 A2983 RMK AO1

More Conditions Fewer Conditions

10-Day Weather Forecast

Almanac

Astronomy

Oct. 24, 2014 Rise Set
Actual Time 7:18 AM EDT 6:08 PM EDT
Civil Twilight 6:50 AM EDT 6:35 PM EDT
Nautical Twilight 6:19 AM EDT 7:06 PM EDT
Astronomical Twilight 5:48 AM EDT 7:37 PM EDT
Moon 7:54 AM EDT 6:47 PM EDT
Length of Visible Light 11h 44m
Length of Day
10h 50m
Tomorrow will be 2m 21s shorter.
New Moon, 0% of the Moon is Illuminated
Today
New Moon
Oct 30
First Quarter
Nov 6
Full
Nov 14
Last Quarter
Nov 22
New

Today's Extremes

State Highs State Lows

Community

WunderPhotos

Upload Photos

1,764,510 photos uploaded!

WunderBlogs® & News

Nearby

Snow Depth

Station Depth Elevation
No new snow has been reported.

Earthquake Activity

City Distance Mag. Time & Date
No recent earthquake activity has been reported nearby.
Minimum magnitude displayed is 2.5.

Coastal Water Temperatures

Place Temperature
Cape May, NJ 61.0 °F
Lewes, DE 57.9 °F

Nearby Weather Stations